Time;durP1;ratioP1;P1;durP2;ratioP2;P2;SDS_P1;SDS_P2;PMS_P1;PMS_P2;Temp;Humidity;BMP_temperature;BMP_pressure;BME280_temperature;BME280_humidity;BME280_pressure;Samples;Min_cycle;Max_cycle;Signal;HPM_P1;HPM_P2
2023/08/21 00:01:05;;;;;;;7.22;2.95;;;;;;;19.83;88.40;102159.59;6205151;23;20004;-83
2023/08/21 00:03:31;;;;;;;8.88;3.00;;;;;;;19.71;89.44;102152.00;6204714;23;20005;-83
2023/08/21 00:05:56;;;;;;;6.03;2.90;;;;;;;19.74;89.34;102157.00;6178054;23;20008;-84
2023/08/21 00:08:22;;;;;;;10.02;3.35;;;;;;;19.65;89.47;102177.00;6204947;23;20426;-82
2023/08/21 00:10:47;;;;;;;10.10;3.45;;;;;;;19.57;89.25;102179.78;6204982;23;20016;-82
2023/08/21 00:13:13;;;;;;;11.65;3.55;;;;;;;19.54;89.33;102185.56;6204600;23;20087;-83
2023/08/21 00:15:39;;;;;;;9.55;3.20;;;;;;;19.55;89.20;102168.38;6204711;23;20009;-83
2023/08/21 00:18:05;;;;;;;7.68;3.15;;;;;;;19.60;89.10;102158.69;6204451;23;20005;-83
2023/08/21 00:20:31;;;;;;;9.00;3.35;;;;;;;19.55;88.95;102144.16;6204880;23;20012;-85
2023/08/21 00:22:56;;;;;;;8.18;3.30;;;;;;;19.44;88.79;102138.25;6204538;23;20011;-84
2023/08/21 00:25:22;;;;;;;10.52;3.58;;;;;;;19.54;88.63;102151.38;6204543;23;20468;-83
2023/08/21 00:27:47;;;;;;;9.15;3.70;;;;;;;19.42;88.63;102144.84;6204242;23;20341;-83
2023/08/21 00:30:14;;;;;;;10.00;3.60;;;;;;;19.35;87.96;102140.22;6178138;23;20341;-81
2023/08/21 00:32:40;;;;;;;9.18;3.47;;;;;;;19.36;87.53;102141.88;6177246;23;20012;-83
2023/08/21 00:35:06;;;;;;;10.27;3.80;;;;;;;19.29;88.07;102146.34;6204384;23;20012;-83
2023/08/21 00:37:31;;;;;;;9.82;3.33;;;;;;;19.24;88.62;102126.44;6204881;23;20010;-83
2023/08/21 00:39:56;;;;;;;7.60;3.40;;;;;;;19.44;88.10;102151.69;6205145;23;20396;-82
2023/08/21 00:42:22;;;;;;;8.32;3.42;;;;;;;19.31;87.95;102135.41;6203988;23;20013;-84
2023/08/21 00:44:47;;;;;;;12.23;3.92;;;;;;;19.23;87.92;102141.72;6204158;23;20074;-83
2023/08/21 00:47:12;;;;;;;8.32;3.60;;;;;;;19.22;87.79;102151.66;6177185;23;20009;-83
2023/08/21 00:49:39;;;;;;;9.82;3.80;;;;;;;19.14;87.67;102161.69;6204351;23;20008;-81
2023/08/21 00:52:10;;;;;;;9.02;3.42;;;;;;;19.25;88.44;102161.22;6178269;23;20016;-84
2023/08/21 00:54:36;;;;;;;10.27;4.05;;;;;;;19.12;90.23;102151.09;6205061;23;20409;-84
2023/08/21 00:57:02;;;;;;;8.43;3.70;;;;;;;18.90;91.20;102153.66;6204700;23;20004;-83
2023/08/21 00:59:28;;;;;;;7.03;3.53;;;;;;;19.10;91.49;102147.78;6205524;23;20019;-83
2023/08/21 01:01:54;;;;;;;8.70;3.60;;;;;;;19.02;92.28;102145.97;6179102;23;20326;-85
2023/08/21 01:04:19;;;;;;;10.65;3.95;;;;;;;19.21;91.70;102166.09;6207228;23;20005;-83
2023/08/21 01:06:44;;;;;;;11.65;4.10;;;;;;;19.08;91.20;102163.25;6207399;23;20092;-82
2023/08/21 01:09:24;;;;;;;9.50;3.88;;;;;;;19.05;92.09;102161.75;6212297;23;20015;-85
2023/08/21 01:12:13;;;;;;;8.02;3.70;;;;;;;19.04;92.75;102167.34;6227634;23;20020;-85
2023/08/21 01:15:02;;;;;;;10.05;4.07;;;;;;;19.09;92.70;102152.31;6222508;23;20120;-84
2023/08/21 01:17:34;;;;;;;7.90;3.90;;;;;;;18.96;92.65;102144.03;6187455;23;20453;-82
2023/08/21 01:20:00;;;;;;;9.75;4.07;;;;;;;19.03;92.39;102130.72;6204647;23;20027;-85
2023/08/21 01:22:27;;;;;;;8.93;4.15;;;;;;;18.94;92.55;102132.63;6206265;23;20090;-83
2023/08/21 01:24:54;;;;;;;9.60;3.92;;;;;;;18.91;92.69;102133.81;6204608;23;20063;-83
2023/08/21 01:27:21;;;;;;;11.60;4.20;;;;;;;18.81;92.44;102133.28;6204000;23;20314;-83
2023/08/21 01:29:47;;;;;;;10.98;4.22;;;;;;;18.83;92.54;102139.31;6205180;23;20054;-82
2023/08/21 01:32:27;;;;;;;8.48;4.00;;;;;;;18.84;92.74;102132.91;6204445;23;20020;-82
2023/08/21 01:34:55;;;;;;;10.00;4.47;;;;;;;18.85;92.58;102120.31;6204417;23;20329;-86
2023/08/21 01:37:21;;;;;;;9.95;3.90;;;;;;;18.75;92.55;102123.28;6204275;23;20009;-82
2023/08/21 01:39:46;;;;;;;9.15;4.40;;;;;;;18.71;92.66;102108.53;6203744;23;20011;-82
2023/08/21 01:42:11;;;;;;;12.40;4.22;;;;;;;18.65;92.82;102110.13;6203746;23;20009;-84
2023/08/21 01:44:37;;;;;;;9.48;4.43;;;;;;;18.72;92.92;102134.38;6203796;23;20341;-84
2023/08/21 01:47:02;;;;;;;8.77;4.00;;;;;;;18.69;92.98;102131.06;6204078;23;20085;-82
2023/08/21 01:49:28;;;;;;;12.65;4.50;;;;;;;18.58;93.05;102118.06;6204029;23;20334;-82
2023/08/21 01:51:53;;;;;;;13.00;4.45;;;;;;;18.74;92.79;102140.44;6202806;23;20035;-84
2023/08/21 01:54:18;;;;;;;8.43;4.07;;;;;;;18.65;94.05;102129.75;6204042;23;20035;-83
2023/08/21 01:56:44;;;;;;;8.25;3.88;;;;;;;18.58;94.20;102139.56;6177618;23;20013;-82
2023/08/21 01:59:09;;;;;;;9.20;3.88;;;;;;;18.54;94.28;102151.69;6202693;23;20009;-84
2023/08/21 02:01:34;;;;;;;8.18;3.92;;;;;;;18.44;94.38;102146.56;6203388;23;20066;-83
2023/08/21 02:04:00;;;;;;;11.18;4.25;;;;;;;18.38;94.22;102132.03;6202093;23;20009;-83
2023/08/21 02:06:26;;;;;;;8.82;4.10;;;;;;;18.32;95.01;102135.47;6203543;23;20414;-82
2023/08/21 02:08:52;;;;;;;9.40;4.20;;;;;;;18.24;95.13;102141.72;6203796;23;20492;-84
2023/08/21 02:11:17;;;;;;;9.20;3.97;;;;;;;18.17;96.97;102154.22;6177433;23;20036;-85
2023/08/21 02:13:42;;;;;;;7.18;3.90;;;;;;;18.21;97.67;102152.00;6205043;23;20075;-83
2023/08/21 02:16:08;;;;;;;11.68;4.30;;;;;;;18.18;97.17;102138.91;6205095;23;20384;-83
2023/08/21 02:18:33;;;;;;;11.98;3.80;;;;;;;18.18;96.84;102136.22;6178829;23;20434;-83
2023/08/21 02:21:01;;;;;;;9.98;4.18;;;;;;;18.01;97.22;102136.34;6178362;23;20499;-86
2023/08/21 02:23:27;;;;;;;8.35;4.05;;;;;;;18.06;97.62;102143.91;6205972;23;20005;-86
2023/08/21 02:25:53;;;;;;;10.40;4.10;;;;;;;18.00;97.63;102134.66;6205994;23;20015;-83
2023/08/21 02:28:19;;;;;;;9.88;4.03;;;;;;;18.14;97.75;102154.56;6205818;23;20028;-82
2023/08/21 02:30:45;;;;;;;12.75;4.30;;;;;;;18.05;98.08;102132.28;6205338;23;20012;-84
2023/08/21 02:33:10;;;;;;;8.63;3.83;;;;;;;17.84;98.64;102132.94;6205724;23;20087;-84
2023/08/21 02:35:36;;;;;;;9.60;3.88;;;;;;;17.92;99.00;102134.72;6205355;23;20012;-84
2023/08/21 02:38:01;;;;;;;12.50;4.18;;;;;;;17.85;99.02;102148.88;6205657;23;20345;-83
2023/08/21 02:40:26;;;;;;;9.20;4.00;;;;;;;18.01;98.70;102139.84;6205519;23;20013;-84
2023/08/21 02:42:52;;;;;;;9.65;3.90;;;;;;;17.98;98.67;102144.75;6205494;23;20008;-83
2023/08/21 02:45:18;;;;;;;10.50;4.10;;;;;;;17.96;99.05;102152.16;6205280;23;20035;-83
2023/08/21 02:47:44;;;;;;;8.90;3.80;;;;;;;17.68;99.27;102134.72;6205632;23;20011;-83
2023/08/21 02:50:10;;;;;;;8.73;4.10;;;;;;;17.83;99.71;102145.53;6205166;23;20013;-83
2023/08/21 02:52:36;;;;;;;12.45;3.88;;;;;;;17.76;100.00;102141.88;6205289;23;20533;-84
2023/08/21 02:55:03;;;;;;;13.65;4.10;;;;;;;17.63;99.33;102120.16;6178261;23;20299;-86
2023/08/21 02:57:28;;;;;;;15.13;4.13;;;;;;;17.60;99.87;102138.28;6178162;23;20016;-83
2023/08/21 02:59:54;;;;;;;13.65;4.30;;;;;;;17.60;100.00;102149.03;6205326;23;20008;-83
2023/08/21 03:02:20;;;;;;;10.43;4.30;;;;;;;17.61;100.00;102149.84;6205177;23;20016;-85
2023/08/21 03:04:46;;;;;;;15.82;4.20;;;;;;;17.57;100.00;102130.59;6205244;23;20013;-84
2023/08/21 03:07:11;;;;;;;16.90;3.95;;;;;;;17.64;100.00;102143.28;6205542;23;20013;-84
2023/08/21 03:09:37;;;;;;;10.40;3.88;;;;;;;17.58;100.00;102140.28;6178168;23;20471;-83
2023/08/21 03:12:03;;;;;;;12.65;3.78;;;;;;;17.49;100.00;102138.69;6178085;23;20398;-85
2023/08/21 03:14:29;;;;;;;13.38;4.35;;;;;;;17.39;100.00;102128.19;6204636;23;20032;-83
2023/08/21 03:16:54;;;;;;;11.25;3.92;;;;;;;17.51;100.00;102139.34;6205089;23;20080;-83
2023/08/21 03:19:20;;;;;;;15.52;3.90;;;;;;;17.52;100.00;102154.41;6204834;23;20158;-83
2023/08/21 03:21:45;;;;;;;9.52;3.55;;;;;;;17.39;100.00;102135.38;6178297;23;20009;-83
2023/08/21 03:24:10;;;;;;;5.47;3.20;;;;;;;17.34;100.00;102134.09;6204925;23;20016;-83
2023/08/21 03:26:36;;;;;;;11.07;3.97;;;;;;;17.42;100.00;102145.78;6204423;23;20012;-82
2023/08/21 03:29:02;;;;;;;13.00;4.25;;;;;;;17.37;100.00;102143.59;6205069;23;20008;-83
2023/08/21 03:31:27;;;;;;;8.30;3.70;;;;;;;17.26;100.00;102142.16;6204899;23;20008;-83
2023/08/21 03:33:53;;;;;;;10.05;3.85;;;;;;;17.25;100.00;102155.72;6204809;23;20016;-82
2023/08/21 03:36:19;;;;;;;8.10;3.80;;;;;;;17.22;100.00;102140.81;6204910;23;20012;-84
2023/08/21 03:38:45;;;;;;;10.32;3.90;;;;;;;17.25;100.00;102145.84;6178271;23;20437;-83
2023/08/21 03:41:11;;;;;;;7.65;3.40;;;;;;;17.26;100.00;102152.88;6178668;23;20008;-83
2023/08/21 03:43:37;;;;;;;10.88;3.92;;;;;;;17.02;100.00;102135.88;6205248;23;20445;-84
2023/08/21 03:46:02;;;;;;;12.27;4.50;;;;;;;16.89;100.00;102119.47;6205231;23;20004;-84
2023/08/21 03:48:28;;;;;;;10.02;4.60;;;;;;;17.07;100.00;102141.53;6205501;23;20014;-86
2023/08/21 03:50:53;;;;;;;11.63;4.38;;;;;;;17.07;100.00;102128.16;6178612;23;20017;-83
2023/08/21 03:53:20;;;;;;;12.13;4.38;;;;;;;17.15;100.00;102126.44;6204108;23;20005;-86
2023/08/21 03:55:45;;;;;;;10.02;4.40;;;;;;;17.14;100.00;102122.09;6177449;23;20163;-84
2023/08/21 03:58:10;;;;;;;10.00;4.20;;;;;;;17.21;100.00;102128.41;6204659;23;20434;-84
2023/08/21 04:00:36;;;;;;;10.07;4.50;;;;;;;17.08;100.00;102123.63;6203291;23;20114;-84
2023/08/21 04:03:01;;;;;;;10.02;4.40;;;;;;;16.97;100.00;102122.13;6204479;23;20016;-84
2023/08/21 04:05:26;;;;;;;9.88;4.47;;;;;;;17.12;100.00;102124.13;6205030;23;20059;-83
2023/08/21 04:07:52;;;;;;;9.20;4.85;;;;;;;17.03;100.00;102124.13;6205028;23;20032;-85
2023/08/21 04:10:17;;;;;;;8.88;4.55;;;;;;;17.04;100.00;102131.19;6204860;23;20013;-85
2023/08/21 04:12:42;;;;;;;13.25;4.72;;;;;;;16.94;100.00;102134.00;6204412;23;20008;-86
2023/08/21 04:15:09;;;;;;;13.00;4.68;;;;;;;17.08;100.00;102137.84;6204559;23;20031;-84
2023/08/21 04:17:34;;;;;;;11.88;4.60;;;;;;;17.08;100.00;102137.84;6204344;23;20015;-86
2023/08/21 04:19:59;;;;;;;9.18;4.03;;;;;;;17.02;100.00;102146.59;6204365;23;20013;-85
2023/08/21 04:22:25;;;;;;;8.93;4.03;;;;;;;16.87;100.00;102145.63;6204169;23;20016;-84
2023/08/21 04:24:50;;;;;;;8.13;3.83;;;;;;;16.76;100.00;102152.16;6203874;23;20032;-83
2023/08/21 04:27:15;;;;;;;6.55;3.80;;;;;;;16.74;100.00;102155.03;6204207;23;20062;-86
2023/08/21 04:29:41;;;;;;;13.07;4.45;;;;;;;16.72;100.00;102151.66;6177830;23;20078;-84
2023/08/21 04:32:06;;;;;;;10.70;4.00;;;;;;;16.75;100.00;102167.41;6204374;23;20008;-85
2023/08/21 04:34:35;;;;;;;10.02;4.75;;;;;;;16.78;100.00;102167.03;6204187;23;20059;-83
2023/08/21 04:37:00;;;;;;;10.93;4.95;;;;;;;16.89;100.00;102165.88;6203312;23;20076;-84
2023/08/21 04:39:26;;;;;;;9.68;4.43;;;;;;;16.90;100.00;102164.00;6203790;23;20055;-84
2023/08/21 04:41:51;;;;;;;9.68;4.70;;;;;;;16.76;100.00;102147.63;6204249;23;20005;-84
2023/08/21 04:44:17;;;;;;;11.63;4.90;;;;;;;16.87;100.00;102161.69;6203961;23;20008;-83
2023/08/21 04:46:43;;;;;;;11.98;4.78;;;;;;;16.92;100.00;102157.47;6204278;23;20036;-84
2023/08/21 04:49:08;;;;;;;16.88;4.45;;;;;;;16.94;100.00;102150.09;6204129;23;20382;-85
2023/08/21 04:51:34;;;;;;;13.98;4.53;;;;;;;17.03;100.00;102172.38;6204358;23;20009;-83
2023/08/21 04:53:59;;;;;;;10.43;4.40;;;;;;;17.02;100.00;102161.81;6204607;23;20008;-83
2023/08/21 04:56:25;;;;;;;10.27;4.50;;;;;;;16.99;100.00;102157.63;6204175;23;20083;-83
2023/08/21 04:58:52;;;;;;;9.85;4.78;;;;;;;17.08;100.00;102178.06;6205230;23;20005;-85
2023/08/21 05:01:17;;;;;;;9.98;4.50;;;;;;;17.08;100.00;102161.16;6204782;23;20023;-86
2023/08/21 05:03:42;;;;;;;13.98;4.70;;;;;;;17.19;100.00;102167.97;6205007;23;20272;-84
2023/08/21 05:06:08;;;;;;;9.95;4.30;;;;;;;16.89;100.00;102159.66;6204009;23;20070;-83
2023/08/21 05:08:34;;;;;;;10.60;4.43;;;;;;;16.93;100.00;102185.13;6204551;23;20004;-83
2023/08/21 05:11:00;;;;;;;7.45;4.43;;;;;;;16.87;100.00;102169.72;6204236;23;20058;-86
2023/08/21 05:13:26;;;;;;;12.25;4.38;;;;;;;17.01;100.00;102186.91;6203991;23;20062;-84
2023/08/21 05:15:56;;;;;;;8.55;4.45;;;;;;;16.90;100.00;102172.03;6202508;23;20341;-83
2023/08/21 05:18:22;;;;;;;9.73;4.43;;;;;;;17.05;100.00;102194.50;6202303;23;20366;-82
2023/08/21 05:20:49;;;;;;;13.45;4.70;;;;;;;17.02;100.00;102189.47;6175287;23;20437;-83
2023/08/21 05:23:14;;;;;;;11.27;4.97;;;;;;;16.96;100.00;102179.41;6202688;23;20005;-84
2023/08/21 05:25:40;;;;;;;9.00;4.50;;;;;;;17.10;100.00;102196.66;6202425;23;20028;-74
2023/08/21 05:28:06;;;;;;;9.43;4.53;;;;;;;17.17;100.00;102202.16;6199312;23;20421;-76
2023/08/21 05:30:32;;;;;;;10.68;5.00;;;;;;;17.20;100.00;102207.16;6200521;23;20004;-80
2023/08/21 05:32:57;;;;;;;11.80;5.03;;;;;;;17.23;100.00;102196.13;6200248;23;20009;-77
2023/08/21 05:35:23;;;;;;;11.35;5.30;;;;;;;17.29;100.00;102202.63;6200522;23;20005;-75
2023/08/21 05:37:48;;;;;;;9.90;4.88;;;;;;;17.33;100.00;102196.72;6200301;23;20092;-76
2023/08/21 05:40:13;;;;;;;9.13;4.75;;;;;;;17.36;100.00;102200.09;6200261;23;20019;-78
2023/08/21 05:42:39;;;;;;;12.70;5.15;;;;;;;17.43;100.00;102201.06;6199254;23;20010;-77
2023/08/21 05:45:05;;;;;;;15.00;5.75;;;;;;;17.44;100.00;102208.09;6200396;23;21024;-76
2023/08/21 05:47:30;;;;;;;15.68;5.90;;;;;;;17.38;100.00;102203.44;6200617;23;20004;-78
2023/08/21 05:49:56;;;;;;;13.20;5.70;;;;;;;17.44;100.00;102202.72;6202184;23;20062;-79
2023/08/21 05:52:22;;;;;;;12.18;5.72;;;;;;;17.41;100.00;102208.47;6202241;23;20116;-77
2023/08/21 05:54:48;;;;;;;11.85;5.68;;;;;;;17.51;100.00;102209.06;6202467;23;20008;-77
2023/08/21 05:57:13;;;;;;;14.50;6.28;;;;;;;17.55;100.00;102204.19;6202380;23;20012;-77
2023/08/21 05:59:46;;;;;;;17.88;6.57;;;;;;;17.54;100.00;102203.38;6202530;23;20016;-75
2023/08/21 06:02:12;;;;;;;14.90;6.10;;;;;;;17.54;100.00;102203.38;6201805;23;20004;-77
2023/08/21 06:04:40;;;;;;;185.00;18.15;;;;;;;17.54;100.00;102203.38;6202309;23;20076;-76
2023/08/21 06:07:05;;;;;;;39.47;8.35;;;;;;;17.54;100.00;102214.09;6202126;23;20048;-77
2023/08/21 06:09:33;;;;;;;14.40;6.90;;;;;;;17.56;100.00;102216.59;6202418;23;20359;-77
2023/08/21 06:12:02;;;;;;;13.32;7.30;;;;;;;17.52;100.00;102216.09;6202590;23;20016;-78
2023/08/21 06:14:30;;;;;;;19.75;7.43;;;;;;;17.54;100.00;102214.09;6175254;23;20043;-76
2023/08/21 06:16:57;;;;;;;14.25;7.22;;;;;;;17.72;100.00;102215.69;6202413;23;20012;-75
2023/08/21 06:19:23;;;;;;;13.43;7.18;;;;;;;17.78;100.00;102214.97;6202192;23;20019;-78
2023/08/21 06:21:48;;;;;;;25.52;8.30;;;;;;;17.86;100.00;102222.16;6202382;23;20020;-77
2023/08/21 06:24:13;;;;;;;29.15;9.20;;;;;;;17.97;100.00;102231.66;6201811;23;20373;-76
2023/08/21 06:26:40;;;;;;;15.45;8.20;;;;;;;17.97;100.00;102223.59;6202074;23;20008;-76
2023/08/21 06:29:05;;;;;;;20.27;7.85;;;;;;;18.06;100.00;102219.88;6201526;23;20337;-77
2023/08/21 06:31:30;;;;;;;15.82;8.55;;;;;;;18.10;100.00;102226.56;6201946;23;20197;-75
2023/08/21 06:33:56;;;;;;;16.65;8.07;;;;;;;18.21;100.00;102229.84;6201345;23;20044;-75
2023/08/21 06:36:21;;;;;;;17.13;8.55;;;;;;;18.27;100.00;102229.13;6201644;23;20009;-75
2023/08/21 06:38:46;;;;;;;16.33;8.55;;;;;;;18.31;100.00;102233.13;6202100;23;20090;-74
2023/08/21 06:41:12;;;;;;;14.95;8.32;;;;;;;18.38;100.00;102234.09;6201694;23;20009;-77
2023/08/21 06:43:37;;;;;;;18.63;8.07;;;;;;;18.40;100.00;102232.06;6201711;23;20487;-75
2023/08/21 06:46:02;;;;;;;14.52;7.30;;;;;;;18.52;100.00;102237.00;6201603;23;20363;-77
2023/08/21 06:48:28;;;;;;;15.95;7.63;;;;;;;18.57;100.00;102231.91;6202165;23;20087;-78
2023/08/21 06:50:53;;;;;;;15.80;7.70;;;;;;;18.66;100.00;102233.50;6174830;23;20005;-77
2023/08/21 06:53:18;;;;;;;15.88;7.20;;;;;;;18.75;100.00;102233.44;6201850;23;20015;-76
2023/08/21 06:55:47;;;;;;;14.93;6.85;;;;;;;18.85;100.00;102231.31;6202043;23;20131;-75
2023/08/21 06:58:12;;;;;;;14.05;6.72;;;;;;;18.93;100.00;102228.56;6201799;23;20109;-77
2023/08/21 07:00:38;;;;;;;14.18;6.97;;;;;;;19.05;100.00;102230.84;6202047;23;20018;-76
2023/08/21 07:03:07;;;;;;;13.73;6.50;;;;;;;19.14;100.00;102240.47;6201790;23;20001;-76
2023/08/21 07:05:32;;;;;;;14.55;6.50;;;;;;;19.23;100.00;102238.53;6202565;23;20004;-77
2023/08/21 07:07:58;;;;;;;11.90;6.22;;;;;;;19.24;100.00;102240.19;6201657;23;20051;-76
2023/08/21 07:10:23;;;;;;;18.73;7.70;;;;;;;19.20;98.82;102239.72;6202138;23;20909;-76
2023/08/21 07:12:49;;;;;;;19.05;7.85;;;;;;;19.21;99.84;102245.94;6201592;23;20095;-76
2023/08/21 07:15:15;;;;;;;18.80;7.78;;;;;;;19.21;100.00;102230.63;6202049;23;20457;-77
2023/08/21 07:17:40;;;;;;;14.57;7.30;;;;;;;19.27;99.94;102241.66;6201873;23;20328;-77
2023/08/21 07:20:06;;;;;;;15.82;7.32;;;;;;;19.29;98.15;102239.66;6201655;23;20012;-77
2023/08/21 07:22:32;;;;;;;15.02;7.57;;;;;;;19.40;99.30;102241.88;6174283;23;20036;-77
2023/08/21 07:24:57;;;;;;;12.90;6.03;;;;;;;19.43;95.03;102244.19;6202127;23;20019;-79
2023/08/21 07:27:22;;;;;;;13.80;5.78;;;;;;;19.46;94.46;102238.44;6201822;23;20015;-76
2023/08/21 07:29:48;;;;;;;14.50;6.68;;;;;;;19.53;96.01;102243.06;6201952;23;20481;-76
2023/08/21 07:32:13;;;;;;;13.23;6.15;;;;;;;19.60;96.13;102239.41;6201240;23;20400;-79
2023/08/21 07:34:39;;;;;;;11.57;6.60;;;;;;;19.65;94.69;102236.19;6201583;23;20023;-79
2023/08/21 07:37:04;;;;;;;14.07;6.72;;;;;;;19.72;91.15;102241.63;6201547;23;20035;-77
2023/08/21 07:39:29;;;;;;;15.40;6.07;;;;;;;19.75;91.17;102241.28;6201365;23;20009;-76
2023/08/21 07:41:55;;;;;;;11.63;6.30;;;;;;;19.84;91.47;102242.00;6201551;23;20091;-77
2023/08/21 07:44:20;;;;;;;12.68;6.50;;;;;;;19.89;94.93;102236.88;6201816;23;20008;-77
2023/08/21 07:46:46;;;;;;;12.55;5.15;;;;;;;19.96;87.60;102245.88;6201212;23;20014;-77
2023/08/21 07:49:11;;;;;;;12.68;6.25;;;;;;;20.01;87.50;102246.16;6201725;23;20083;-76
2023/08/21 07:51:36;;;;;;;14.18;5.78;;;;;;;20.13;90.82;102242.97;6202106;23;20089;-77
2023/08/21 07:54:01;;;;;;;13.40;5.13;;;;;;;20.16;86.63;102253.34;6202131;23;20409;-79
2023/08/21 07:56:27;;;;;;;12.18;6.30;;;;;;;20.19;86.50;102252.13;6201513;23;20013;-78
2023/08/21 07:58:52;;;;;;;12.65;6.47;;;;;;;20.14;88.87;102252.72;6202235;23;20418;-76
2023/08/21 08:01:20;;;;;;;11.80;6.82;;;;;;;20.13;88.66;102259.13;6202523;23;20433;-76
2023/08/21 08:03:45;;;;;;;10.70;6.63;;;;;;;20.16;88.35;102245.25;6203107;23;20044;-76
2023/08/21 08:06:10;;;;;;;14.48;7.35;;;;;;;20.28;86.78;102254.50;6208938;23;20011;-79
2023/08/21 08:08:35;;;;;;;13.02;7.45;;;;;;;20.43;87.43;102248.22;6206137;23;20433;-77
2023/08/21 08:11:02;;;;;;;14.45;7.25;;;;;;;20.52;84.13;102249.75;6207273;23;20056;-77
2023/08/21 08:13:28;;;;;;;13.95;6.80;;;;;;;20.55;83.76;102257.44;6208120;23;20029;-80
2023/08/21 08:15:53;;;;;;;13.25;6.53;;;;;;;20.73;83.35;102260.69;6207376;23;20342;-76
2023/08/21 08:18:18;;;;;;;14.60;6.53;;;;;;;20.87;82.92;102258.97;6175799;23;20047;-79
2023/08/21 08:20:44;;;;;;;11.20;6.28;;;;;;;21.02;86.58;102258.88;6201219;23;20017;-76
2023/08/21 08:23:09;;;;;;;14.82;7.22;;;;;;;21.05;85.06;102256.59;6201466;23;20433;-77
2023/08/21 08:25:34;;;;;;;15.43;6.10;;;;;;;21.14;83.40;102264.53;6201628;23;20401;-79
2023/08/21 08:28:00;;;;;;;14.57;7.13;;;;;;;21.19;83.49;102262.06;6201097;23;20066;-75
2023/08/21 08:30:26;;;;;;;9.60;5.20;;;;;;;21.22;81.88;102272.50;6201178;23;20012;-76
2023/08/21 08:32:51;;;;;;;10.57;4.93;;;;;;;21.18;80.21;102265.81;6201120;23;20013;-76
2023/08/21 08:35:17;;;;;;;9.52;5.22;;;;;;;21.21;82.47;102265.41;6200637;23;20452;-76
2023/08/21 08:37:42;;;;;;;13.27;6.20;;;;;;;21.30;82.78;102264.22;6200651;23;20008;-76
2023/08/21 08:40:09;;;;;;;11.32;5.75;;;;;;;21.36;82.40;102260.72;6201486;23;20088;-76
2023/08/21 08:42:37;;;;;;;11.13;5.88;;;;;;;21.39;80.67;102261.34;6176368;23;20090;-85
2023/08/21 08:45:04;;;;;;;12.50;5.82;;;;;;;21.52;81.00;102260.59;6204136;23;20062;-84
2023/08/21 08:47:32;;;;;;;10.60;5.05;;;;;;;21.56;79.86;102251.88;6203601;23;20319;-84
2023/08/21 08:49:59;;;;;;;13.27;5.00;;;;;;;21.72;78.63;102264.22;6204312;23;20009;-83
2023/08/21 08:52:26;;;;;;;8.80;3.10;;;;;;;21.82;72.69;102269.28;6204122;23;20009;-82
2023/08/21 08:54:55;;;;;;;8.13;2.92;;;;;;;21.75;70.11;102260.28;6203827;23;20015;-83
2023/08/21 08:57:21;;;;;;;7.72;3.30;;;;;;;21.85;74.31;102270.75;6203906;23;20005;-83
2023/08/21 08:59:47;;;;;;;10.02;3.90;;;;;;;21.76;76.25;102262.81;6203765;23;20076;-83
2023/08/21 09:02:13;;;;;;;9.93;3.90;;;;;;;21.87;75.45;102269.47;6203384;23;20035;-84
2023/08/21 09:04:38;;;;;;;12.35;5.10;;;;;;;21.94;77.19;102268.69;6204297;23;20417;-82
2023/08/21 09:07:08;;;;;;;10.38;3.70;;;;;;;21.86;71.42;102267.81;6203202;23;20008;-85
2023/08/21 09:09:46;;;;;;;10.80;3.85;;;;;;;21.88;75.76;102254.97;6176669;23;20009;-84
2023/08/21 09:12:13;;;;;;;7.88;3.30;;;;;;;21.95;74.55;102254.97;6203125;23;20168;-84
2023/08/21 09:14:42;;;;;;;8.30;2.97;;;;;;;21.90;70.83;102258.28;6203279;23;20011;-82
2023/08/21 09:17:08;;;;;;;10.68;3.83;;;;;;;21.98;72.36;102251.03;6203081;23;20012;-82
2023/08/21 09:19:34;;;;;;;13.35;4.60;;;;;;;21.93;73.67;102250.81;6202484;23;20012;-83
2023/08/21 09:22:08;;;;;;;10.18;3.60;;;;;;;21.90;76.12;102255.59;6203798;23;20012;-83
2023/08/21 09:24:33;;;;;;;7.95;2.55;;;;;;;21.88;68.96;102254.97;6205244;23;20015;-83
2023/08/21 09:27:01;;;;;;;9.25;2.90;;;;;;;22.00;73.73;102252.50;6204862;23;20005;-83
2023/08/21 09:29:26;;;;;;;6.55;2.28;;;;;;;22.09;71.83;102255.00;6205088;23;20012;-85
2023/08/21 09:31:56;;;;;;;7.30;3.00;;;;;;;22.19;69.86;102265.44;6204764;23;20084;-82
2023/08/21 09:34:24;;;;;;;10.63;3.00;;;;;;;22.26;72.65;102239.25;6205518;23;20028;-84
2023/08/21 09:36:55;;;;;;;11.57;2.95;;;;;;;22.27;70.07;102252.56;6204991;23;20005;-82
2023/08/21 09:39:22;;;;;;;5.78;2.35;;;;;;;22.25;68.02;102248.41;6204834;23;20078;-82
2023/08/21 09:41:57;;;;;;;9.07;2.83;;;;;;;22.38;71.58;102251.09;6205371;23;20012;-83
2023/08/21 09:44:22;;;;;;;8.20;2.60;;;;;;;22.55;70.68;102248.03;6204738;23;20452;-83
2023/08/21 09:46:50;;;;;;;7.80;2.60;;;;;;;22.64;71.22;102246.75;6204001;23;20004;-82
2023/08/21 09:49:17;;;;;;;7.93;2.70;;;;;;;22.60;67.31;102250.94;6204317;23;20012;-83
2023/08/21 09:51:44;;;;;;;10.77;2.60;;;;;;;22.59;65.61;102233.03;6204566;23;20008;-84
2023/08/21 09:54:11;;;;;;;6.20;2.30;;;;;;;22.72;64.24;102248.44;6177373;23;20314;-81
2023/08/21 09:56:37;;;;;;;6.43;2.60;;;;;;;22.57;64.43;102245.94;6203856;23;20019;-83
2023/08/21 09:59:03;;;;;;;6.07;2.30;;;;;;;22.75;67.91;102252.59;6204267;23;20009;-83
2023/08/21 10:01:33;;;;;;;7.30;2.72;;;;;;;22.71;66.18;102242.19;6177812;23;20012;-82
2023/08/21 10:04:02;;;;;;;5.47;2.28;;;;;;;22.80;64.85;102247.41;6204997;23;20425;-83
2023/08/21 10:06:29;;;;;;;8.00;2.58;;;;;;;22.87;66.79;102250.91;6203481;23;20074;-84
2023/08/21 10:08:56;;;;;;;6.35;2.42;;;;;;;23.03;68.17;102243.41;6203386;23;20437;-83
2023/08/21 10:11:22;;;;;;;6.57;2.50;;;;;;;23.01;64.62;102240.06;6176924;23;20444;-82
2023/08/21 10:13:50;;;;;;;7.35;2.50;;;;;;;23.25;68.45;102242.06;6203888;23;20008;-82
2023/08/21 10:16:16;;;;;;;10.93;2.70;;;;;;;23.30;66.54;102240.63;6203724;23;20016;-81
2023/08/21 10:18:45;;;;;;;9.38;2.50;;;;;;;23.27;65.02;102232.94;6203851;23;20428;-82
2023/08/21 10:21:21;;;;;;;9.70;2.70;;;;;;;23.35;66.02;102228.13;6204185;23;20021;-82
2023/08/21 10:23:48;;;;;;;6.07;2.40;;;;;;;23.47;66.55;102233.72;6203663;23;20413;-82
2023/08/21 10:26:14;;;;;;;7.22;2.47;;;;;;;23.32;61.93;102219.59;6203208;23;20090;-81
2023/08/21 10:28:51;;;;;;;6.03;2.33;;;;;;;23.35;62.45;102235.44;6203516;23;20013;-83
2023/08/21 10:31:30;;;;;;;8.57;2.60;;;;;;;23.34;63.30;102225.66;6203420;23;20051;-83
2023/08/21 10:33:56;;;;;;;7.63;2.65;;;;;;;23.50;63.86;102232.47;6203698;23;20004;-83
2023/08/21 10:36:43;;;;;;;11.45;2.65;;;;;;;23.57;64.85;102232.41;6203781;23;20009;-81
2023/08/21 10:39:20;;;;;;;4.90;2.65;;;;;;;23.62;58.66;102240.72;6203767;23;20076;-82
2023/08/21 10:42:08;;;;;;;7.50;2.05;;;;;;;23.75;63.27;102235.25;6203908;23;20012;-81
2023/08/21 10:44:42;;;;;;;6.10;2.53;;;;;;;23.90;62.65;102231.41;6179965;23;20610;-82
2023/08/21 10:47:25;;;;;;;7.32;2.30;;;;;;;24.01;64.73;102228.03;6176713;23;20455;-81
2023/08/21 10:49:55;;;;;;;8.43;2.40;;;;;;;24.01;63.63;102225.31;6203082;23;20015;-81
2023/08/21 10:52:26;;;;;;;5.85;2.35;;;;;;;24.13;60.67;102236.28;6176283;23;20032;-83
2023/08/21 10:54:54;;;;;;;7.25;2.45;;;;;;;24.07;60.62;102236.31;6203320;23;20095;-79
2023/08/21 10:57:20;;;;;;;6.15;2.30;;;;;;;24.08;59.17;102232.59;6203399;23;20008;-80
2023/08/21 10:59:53;;;;;;;7.22;2.75;;;;;;;24.15;59.03;102239.63;6203604;23;20016;-82
2023/08/21 11:02:19;;;;;;;6.55;2.55;;;;;;;24.21;60.33;102237.91;6203434;23;20008;-83
2023/08/21 11:04:44;;;;;;;9.43;2.72;;;;;;;24.18;59.65;102224.81;6203126;23;20005;-82
2023/08/21 11:07:11;;;;;;;5.88;2.50;;;;;;;24.34;59.62;102241.56;6203232;23;20009;-81
2023/08/21 11:09:36;;;;;;;9.38;2.50;;;;;;;24.25;57.88;102233.72;6203288;23;20016;-82
2023/08/21 11:12:10;;;;;;;7.20;2.50;;;;;;;24.37;58.81;102238.44;6203410;23;20019;-82
2023/08/21 11:14:35;;;;;;;7.57;2.63;;;;;;;24.38;56.85;102226.53;6202553;23;20013;-79